Time;durP1;ratioP1;P1;durP2;ratioP2;P2;SDS_P1;SDS_P2;PMS_P1;PMS_P2;Temp;Humidity;BMP_temperature;BMP_pressure;BME280_temperature;BME280_humidity;BME280_pressure;Samples;Min_cycle;Max_cycle;Signal;HPM_P1;HPM_P2
2021/07/11 00:00:48;;;;;;;7.53;6.87;;;15.90;99.90;;;;;;4973910;28;20517;-60
2021/07/11 00:03:15;;;;;;;7.00;6.30;;;15.80;99.90;;;;;;4977397;28;20466;-60
2021/07/11 00:05:45;;;;;;;7.73;6.93;;;15.80;99.90;;;;;;4968950;28;20502;-60
2021/07/11 00:08:14;;;;;;;7.70;7.00;;;15.80;99.90;;;;;;4971812;28;20532;-60
2021/07/11 00:10:41;;;;;;;8.47;7.77;;;15.90;99.90;;;;;;4976944;28;20462;-60
2021/07/11 00:13:08;;;;;;;8.77;7.00;;;15.90;99.90;;;;;;4977285;28;20560;-60
2021/07/11 00:15:35;;;;;;;9.73;7.13;;;15.90;99.90;;;;;;4976993;28;20473;-60
2021/07/11 00:18:02;;;;;;;8.17;7.47;;;15.90;99.90;;;;;;4977793;28;20953;-60
2021/07/11 00:20:29;;;;;;;8.33;7.60;;;15.90;99.90;;;;;;4977940;28;20516;-60
2021/07/11 00:22:57;;;;;;;7.53;6.83;;;15.90;99.90;;;;;;4977717;28;20468;-60
2021/07/11 00:25:25;;;;;;;7.50;6.67;;;16.00;99.90;;;;;;4977712;28;20474;-60
2021/07/11 00:27:53;;;;;;;10.07;6.37;;;15.90;99.90;;;;;;4978138;28;20470;-61
2021/07/11 00:30:21;;;;;;;7.83;7.10;;;15.90;99.90;;;;;;4976691;28;20577;-60
2021/07/11 00:32:48;;;;;;;8.40;7.70;;;15.90;99.90;;;;;;4977773;28;20503;-61
2021/07/11 00:35:18;;;;;;;7.43;6.73;;;15.90;99.90;;;;;;4977482;28;20473;-60
2021/07/11 00:37:45;;;;;;;8.10;7.40;;;15.90;99.90;;;;;;4977314;28;20474;-60
2021/07/11 00:40:17;;;;;;;11.13;7.97;;;15.80;99.90;;;;;;4976660;28;20556;-60
2021/07/11 00:42:48;;;;;;;9.03;8.23;;;15.80;99.90;;;;;;4977987;28;20461;-60
2021/07/11 00:45:18;;;;;;;8.30;7.60;;;15.80;99.90;;;;;;4977559;28;20474;-60
2021/07/11 00:47:45;;;;;;;8.93;8.13;;;15.80;99.90;;;;;;4978738;28;20473;-61
2021/07/11 00:50:19;;;;;;;8.40;7.23;;;15.90;99.90;;;;;;4980721;28;20478;-61
2021/07/11 00:52:46;;;;;;;9.23;8.33;;;15.90;99.90;;;;;;4980863;28;20501;-60
2021/07/11 00:55:15;;;;;;;9.27;8.47;;;15.80;99.90;;;;;;4980915;28;20476;-61
2021/07/11 00:57:42;;;;;;;8.70;8.00;;;15.80;99.90;;;;;;4974821;28;20466;-60
2021/07/11 01:00:13;;;;;;;8.93;8.00;;;15.90;99.90;;;;;;4979882;28;20465;-61
2021/07/11 01:02:54;;;;;;;9.47;8.50;;;15.90;99.90;;;;;;4980647;28;20553;-61
2021/07/11 01:05:25;;;;;;;11.13;10.03;;;15.90;99.90;;;;;;4974650;28;20478;-61
2021/07/11 01:46:29;;;;;;;10.27;9.27;;;15.60;99.90;;;;;;4248483;23;20507;-64
2021/07/11 01:48:56;;;;;;;12.03;10.63;;;15.60;99.90;;;;;;4942682;29;20475;-63
2021/07/11 01:51:24;;;;;;;13.73;12.23;;;15.60;99.90;;;;;;4942006;29;20467;-63
2021/07/11 01:53:53;;;;;;;16.37;13.97;;;15.60;99.90;;;;;;4940970;29;20557;-63
2021/07/11 01:56:21;;;;;;;17.53;15.23;;;15.60;99.90;;;;;;4941758;29;20470;-63
2021/07/11 01:58:48;;;;;;;17.67;15.77;;;15.60;99.90;;;;;;4941198;29;20478;-63
2021/07/11 02:01:18;;;;;;;17.80;15.40;;;15.60;99.90;;;;;;4941386;29;20472;-63
2021/07/11 02:03:46;;;;;;;17.57;14.73;;;15.60;99.90;;;;;;4936111;29;20860;-63
2021/07/11 02:06:15;;;;;;;20.83;16.67;;;15.60;99.90;;;;;;4937656;29;20483;-63
2021/07/11 02:08:43;;;;;;;17.13;14.90;;;15.60;99.90;;;;;;4941134;29;20885;-63
2021/07/11 02:11:13;;;;;;;17.37;14.53;;;15.60;99.90;;;;;;4941458;29;20813;-63
2021/07/11 02:13:49;;;;;;;17.93;14.60;;;15.60;99.90;;;;;;4941447;29;21014;-63
2021/07/11 02:16:24;;;;;;;16.33;14.67;;;15.60;99.90;;;;;;4941040;29;20526;-63
2021/07/11 02:18:55;;;;;;;16.43;12.50;;;15.60;99.90;;;;;;4941249;29;20530;-63
2021/07/11 02:21:23;;;;;;;16.80;15.00;;;15.60;99.90;;;;;;4940975;29;20535;-63
2021/07/11 02:59:58;;;;;;;22.63;20.23;;;15.80;99.90;;;;;;5428278;23;20534;-62
2021/07/11 03:02:28;;;;;;;23.50;21.00;;;15.80;99.90;;;;;;4919840;29;20464;-62
2021/07/11 03:04:56;;;;;;;21.67;19.13;;;15.80;99.90;;;;;;4913619;29;20476;-62
2021/07/11 03:07:23;;;;;;;23.37;19.23;;;15.80;99.90;;;;;;4920415;29;20469;-62
2021/07/11 03:09:50;;;;;;;23.73;19.83;;;15.80;99.90;;;;;;4920221;29;20472;-62
2021/07/11 04:25:38;;;;;;;37.50;31.60;;;16.00;99.90;;;;;;3312079;23;20494;-65
2021/07/11 04:28:07;;;;;;;39.30;31.13;;;16.00;99.90;;;;;;4982135;28;20473;-65
2021/07/11 04:30:35;;;;;;;45.43;34.00;;;16.00;99.90;;;;;;4981707;28;20468;-65
2021/07/11 04:33:03;;;;;;;36.47;31.57;;;16.10;99.90;;;;;;4981098;28;20560;-65
2021/07/11 04:35:30;;;;;;;36.40;30.80;;;16.00;99.90;;;;;;4981162;28;20481;-65
2021/07/11 04:37:58;;;;;;;36.70;30.23;;;16.00;99.90;;;;;;4980755;28;20476;-65
2021/07/11 04:40:25;;;;;;;38.80;31.20;;;16.00;99.90;;;;;;4978404;28;20532;-65
2021/07/11 04:42:53;;;;;;;33.97;29.17;;;16.10;99.90;;;;;;4981508;28;20583;-65
2021/07/11 04:45:20;;;;;;;39.23;30.90;;;16.00;99.90;;;;;;4981702;28;20469;-65
2021/07/11 04:47:47;;;;;;;39.40;29.60;;;16.10;99.90;;;;;;4981255;28;20882;-64
2021/07/11 04:50:15;;;;;;;38.17;31.23;;;16.00;99.90;;;;;;4981362;28;20798;-65
2021/07/11 04:52:42;;;;;;;37.50;31.13;;;16.00;99.90;;;;;;4980456;28;21004;-65
2021/07/11 04:55:12;;;;;;;41.63;32.60;;;16.10;99.90;;;;;;4981234;28;20548;-65
2021/07/11 04:57:40;;;;;;;41.10;31.30;;;16.10;99.90;;;;;;4980607;28;20477;-65
2021/07/11 05:00:11;;;;;;;39.03;31.80;;;16.10;99.90;;;;;;4980908;28;20469;-65
2021/07/11 05:02:39;;;;;;;41.00;31.70;;;16.20;99.90;;;;;;4979314;28;20890;-65
2021/07/11 05:05:07;;;;;;;39.67;32.33;;;16.20;99.90;;;;;;4968815;28;20738;-65
2021/07/11 05:07:35;;;;;;;39.07;31.00;;;16.20;99.90;;;;;;4979808;28;20477;-65
2021/07/11 05:10:02;;;;;;;39.90;31.43;;;16.30;99.90;;;;;;4980411;28;20540;-64
2021/07/11 05:12:29;;;;;;;39.63;31.80;;;16.20;99.90;;;;;;4980816;28;20564;-64
2021/07/11 05:14:56;;;;;;;36.80;30.30;;;16.10;99.90;;;;;;4980891;28;20461;-65
2021/07/11 05:17:24;;;;;;;37.80;30.70;;;16.10;99.90;;;;;;4980414;28;20520;-65
2021/07/11 05:19:51;;;;;;;33.60;29.97;;;16.10;99.90;;;;;;4980593;28;20544;-65
2021/07/11 05:22:19;;;;;;;33.27;29.20;;;16.10;99.90;;;;;;4980174;28;20437;-65
2021/07/11 05:24:46;;;;;;;32.77;29.00;;;16.20;99.90;;;;;;4980131;28;20867;-65
2021/07/11 05:27:13;;;;;;;31.70;28.30;;;16.20;99.90;;;;;;4980460;28;20805;-65
2021/07/11 05:29:40;;;;;;;30.17;27.10;;;16.30;99.90;;;;;;4980547;28;20480;-65
2021/07/11 05:32:08;;;;;;;30.07;25.63;;;16.40;99.90;;;;;;4980592;28;20528;-65
2021/07/11 05:34:36;;;;;;;30.87;27.57;;;16.50;99.90;;;;;;4979705;28;20548;-65
2021/07/11 05:37:04;;;;;;;29.60;26.40;;;16.40;99.90;;;;;;4980369;28;20474;-65
2021/07/11 05:39:31;;;;;;;31.40;28.10;;;16.40;99.90;;;;;;4974303;28;20466;-65
2021/07/11 05:41:58;;;;;;;32.57;29.20;;;16.40;99.90;;;;;;4980054;28;20469;-65
2021/07/11 05:44:25;;;;;;;30.87;27.77;;;16.40;99.90;;;;;;4973682;28;20724;-65
2021/07/11 05:46:52;;;;;;;31.20;28.10;;;16.50;99.90;;;;;;4974041;28;20473;-65
2021/07/11 05:49:19;;;;;;;27.37;24.47;;;16.60;99.90;;;;;;4973228;28;20524;-65
2021/07/11 05:51:47;;;;;;;27.13;23.83;;;16.70;99.90;;;;;;4979839;28;20474;-65
2021/07/11 05:54:14;;;;;;;29.53;26.60;;;16.70;99.90;;;;;;4979678;28;20814;-65
2021/07/11 05:56:41;;;;;;;30.67;27.50;;;16.70;99.90;;;;;;4980133;28;20444;-65
2021/07/11 05:59:08;;;;;;;30.90;27.70;;;16.70;99.90;;;;;;4979308;28;20469;-66
2021/07/11 06:01:35;;;;;;;32.30;28.87;;;16.80;99.90;;;;;;4980113;28;20568;-65
2021/07/11 06:04:02;;;;;;;31.47;28.27;;;16.70;99.90;;;;;;4967157;28;20824;-66
2021/07/11 06:06:29;;;;;;;31.40;28.00;;;16.70;99.90;;;;;;4975108;28;20462;-66
2021/07/11 06:09:01;;;;;;;33.23;29.67;;;16.60;99.90;;;;;;4976010;28;20740;-66
2021/07/11 06:11:28;;;;;;;34.53;30.30;;;16.50;99.90;;;;;;4979123;28;20466;-66
2021/07/11 06:13:55;;;;;;;33.00;27.83;;;16.50;99.90;;;;;;4977043;28;20505;-65
2021/07/11 06:16:22;;;;;;;35.53;32.00;;;16.50;99.90;;;;;;4979350;28;20789;-65
2021/07/11 06:18:49;;;;;;;32.90;29.50;;;16.50;99.90;;;;;;4979781;28;20473;-65
2021/07/11 06:21:16;;;;;;;31.53;28.13;;;16.50;99.90;;;;;;4979020;28;20470;-65
2021/07/11 06:23:43;;;;;;;33.07;29.57;;;16.50;99.90;;;;;;4979362;28;20495;-66
2021/07/11 06:26:12;;;;;;;33.33;29.70;;;16.50;99.90;;;;;;4978974;28;20501;-66
2021/07/11 06:28:39;;;;;;;33.63;29.93;;;16.50;99.90;;;;;;4979466;28;20466;-66
2021/07/11 06:31:06;;;;;;;34.03;30.43;;;16.50;99.90;;;;;;4979178;28;20470;-66
2021/07/11 06:33:35;;;;;;;36.13;32.10;;;16.50;99.90;;;;;;4979002;28;20505;-66
2021/07/11 06:36:05;;;;;;;38.73;34.53;;;16.50;99.90;;;;;;4979074;28;20529;-66
2021/07/11 06:38:34;;;;;;;38.90;33.07;;;16.60;99.90;;;;;;4978582;28;20771;-66
2021/07/11 06:41:01;;;;;;;35.80;32.00;;;16.60;99.90;;;;;;4978962;28;20470;-66
2021/07/11 06:43:34;;;;;;;36.53;32.43;;;16.60;99.90;;;;;;4979015;28;20469;-66
2021/07/11 06:46:01;;;;;;;32.77;29.20;;;16.80;99.90;;;;;;4978047;28;20470;-66
2021/07/11 06:48:28;;;;;;;33.33;29.73;;;16.80;99.90;;;;;;4979185;28;20444;-66
2021/07/11 06:50:57;;;;;;;32.30;28.93;;;16.90;99.90;;;;;;4978600;28;20474;-66
2021/07/11 06:53:24;;;;;;;31.10;27.80;;;16.90;99.90;;;;;;4978269;28;20552;-66
2021/07/11 06:55:54;;;;;;;33.20;29.70;;;16.90;99.90;;;;;;4978654;28;20473;-66
2021/07/11 06:58:21;;;;;;;33.13;29.57;;;16.90;99.90;;;;;;4978916;28;20495;-66
2021/07/11 07:00:49;;;;;;;40.53;31.80;;;16.80;99.90;;;;;;4978710;28;20470;-67
2021/07/11 07:03:16;;;;;;;35.87;31.70;;;16.80;99.90;;;;;;4971242;28;20474;-66
2021/07/11 07:05:43;;;;;;;37.30;30.97;;;16.70;99.90;;;;;;4973616;28;20529;-66
2021/07/11 07:08:12;;;;;;;36.10;31.80;;;16.70;99.90;;;;;;4977513;28;20477;-66
2021/07/11 07:10:40;;;;;;;38.37;34.17;;;16.70;99.90;;;;;;4978823;28;20473;-66
2021/07/11 07:13:07;;;;;;;40.30;33.07;;;16.70;99.90;;;;;;4977679;28;20548;-66
2021/07/11 07:15:34;;;;;;;37.20;33.17;;;16.60;99.90;;;;;;4978345;28;20877;-66
2021/07/11 07:18:02;;;;;;;38.27;34.33;;;16.70;99.90;;;;;;4978698;28;20477;-66
2021/07/11 07:20:29;;;;;;;39.07;34.83;;;16.80;99.90;;;;;;4978723;28;20568;-66
2021/07/11 07:22:56;;;;;;;36.37;32.47;;;16.90;99.90;;;;;;4975120;28;20514;-66
2021/07/11 07:25:23;;;;;;;35.70;31.90;;;16.90;99.90;;;;;;4978243;28;20563;-66
2021/07/11 07:27:50;;;;;;;33.97;30.43;;;17.00;99.90;;;;;;4976335;28;20467;-66
2021/07/11 07:30:19;;;;;;;34.57;30.83;;;17.00;99.90;;;;;;4978323;28;20911;-66
2021/07/11 08:12:17;;;;;;;35.73;32.00;;;17.70;99.90;;;;;;4985312;23;20464;-63
2021/07/11 08:14:45;;;;;;;38.20;34.10;;;17.50;99.90;;;;;;4976820;28;20815;-64
2021/07/11 08:17:12;;;;;;;38.37;34.20;;;17.50;99.90;;;;;;4981629;28;20444;-64
2021/07/11 08:19:39;;;;;;;39.30;34.70;;;17.40;99.90;;;;;;4981325;28;20449;-63
2021/07/11 08:22:06;;;;;;;39.23;34.00;;;17.40;99.90;;;;;;4981354;28;20465;-63
2021/07/11 08:24:33;;;;;;;40.77;36.33;;;17.40;99.90;;;;;;4981075;28;20565;-63
2021/07/11 08:27:03;;;;;;;39.03;34.73;;;17.30;99.90;;;;;;4981591;28;20779;-64
2021/07/11 08:29:32;;;;;;;43.20;38.53;;;17.40;99.90;;;;;;4981422;28;20493;-63
2021/07/11 08:31:59;;;;;;;48.23;41.83;;;17.60;99.90;;;;;;4981763;28;20473;-63
2021/07/11 08:34:26;;;;;;;45.50;38.80;;;17.70;99.90;;;;;;4981388;28;20501;-63
2021/07/11 08:36:59;;;;;;;47.87;40.13;;;17.70;99.90;;;;;;4981076;28;20520;-63
2021/07/11 08:39:28;;;;;;;51.03;40.80;;;17.70;99.90;;;;;;4980551;28;20836;-62
2021/07/11 08:41:56;;;;;;;53.80;43.80;;;17.80;99.90;;;;;;4981528;28;20477;-62
2021/07/11 08:44:24;;;;;;;53.00;43.50;;;17.90;99.90;;;;;;4981351;28;20501;-63
2021/07/11 08:46:54;;;;;;;52.27;43.03;;;18.00;99.90;;;;;;4981469;28;20898;-63
2021/07/11 08:49:23;;;;;;;51.67;42.67;;;18.00;99.90;;;;;;4980980;28;20451;-63
2021/07/11 08:51:56;;;;;;;51.23;40.43;;;18.00;99.90;;;;;;4981539;28;20493;-62
2021/07/11 08:54:23;;;;;;;49.03;40.13;;;18.00;99.90;;;;;;4980838;28;20584;-62
2021/07/11 08:56:51;;;;;;;45.80;39.40;;;18.20;99.90;;;;;;4980825;28;20485;-62
2021/07/11 08:59:29;;;;;;;46.10;39.43;;;18.20;99.90;;;;;;4980561;28;20474;-62
2021/07/11 09:02:01;;;;;;;42.33;36.40;;;18.70;99.90;;;;;;4980836;28;20451;-62
2021/07/11 09:04:38;;;;;;;40.80;36.10;;;19.10;99.90;;;;;;4968247;28;20517;-61
2021/07/11 09:07:06;;;;;;;36.87;32.40;;;19.70;99.90;;;;;;4971387;28;20514;-62
2021/07/11 09:09:35;;;;;;;38.30;32.90;;;20.00;99.90;;;;;;4977921;28;20452;-61
2021/07/11 09:12:06;;;;;;;34.53;31.03;;;20.00;99.90;;;;;;4980610;28;20845;-61
2021/07/11 09:14:35;;;;;;;37.33;33.60;;;20.00;99.90;;;;;;4980335;28;20481;-61
2021/07/11 09:17:05;;;;;;;38.57;34.57;;;19.70;99.90;;;;;;4979007;28;20505;-60
2021/07/11 09:19:35;;;;;;;39.33;35.10;;;19.30;99.90;;;;;;4980100;28;20822;-61
2021/07/11 09:22:04;;;;;;;36.97;32.93;;;18.90;99.90;;;;;;4973938;28;20592;-60
2021/07/11 09:24:33;;;;;;;40.03;34.40;;;19.00;99.90;;;;;;4980050;28;20544;-59
2021/07/11 09:27:08;;;;;;;41.33;36.70;;;19.10;99.90;;;;;;4980446;28;20474;-61
2021/07/11 09:29:39;;;;;;;37.63;33.60;;;19.30;99.90;;;;;;4979157;28;20451;-59
2021/07/11 09:32:09;;;;;;;37.93;33.93;;;19.70;99.90;;;;;;4980588;28;20826;-61
2021/07/11 09:34:41;;;;;;;34.97;31.57;;;20.10;99.90;;;;;;4980536;28;20501;-61
2021/07/11 09:37:14;;;;;;;33.37;29.90;;;20.40;99.90;;;;;;4977425;28;20878;-61
2021/07/11 09:39:50;;;;;;;35.77;31.97;;;20.40;99.90;;;;;;4978790;28;20466;-61
2021/07/11 09:42:29;;;;;;;32.93;29.53;;;21.00;99.90;;;;;;4979831;28;20469;-62
2021/07/11 09:44:56;;;;;;;30.43;27.10;;;21.80;99.90;;;;;;4980711;28;20741;-62
2021/07/11 09:47:26;;;;;;;31.47;28.07;;;22.90;99.90;;;;;;4979846;28;20466;-63
2021/07/11 10:26:00;;;;;;;23.80;21.40;;;21.90;99.90;;;;;;5160036;23;20491;-61
2021/07/11 10:28:29;;;;;;;25.27;22.77;;;21.70;99.90;;;;;;4979055;28;20957;-59
2021/07/11 10:30:59;;;;;;;25.80;23.30;;;21.80;99.90;;;;;;4977968;28;20474;-60
2021/07/11 10:33:28;;;;;;;23.53;21.13;;;21.90;99.90;;;;;;4978809;28;20811;-60
2021/07/11 10:35:58;;;;;;;24.43;21.70;;;21.70;99.90;;;;;;4979408;28;20470;-58
2021/07/11 11:15:19;;;;;;;18.43;16.73;;;23.20;99.90;;;;;;5085996;23;20493;-60
2021/07/11 11:17:46;;;;;;;22.23;20.23;;;23.40;99.90;;;;;;4977546;28;20508;-61
2021/07/11 11:20:16;;;;;;;18.47;16.57;;;23.40;99.90;;;;;;4977263;28;20594;-61
2021/07/11 11:22:51;;;;;;;20.67;18.73;;;22.90;99.90;;;;;;4977031;28;20927;-61
2021/07/11 11:25:19;;;;;;;18.57;16.70;;;22.70;99.90;;;;;;4975338;28;20461;-61
2021/07/11 11:27:46;;;;;;;20.90;19.10;;;22.70;99.90;;;;;;4970746;28;20470;-61
2021/07/11 11:30:18;;;;;;;17.93;16.33;;;22.50;99.90;;;;;;4971897;28;20466;-61
2021/07/11 11:32:50;;;;;;;18.07;16.40;;;22.00;99.90;;;;;;4967740;28;20746;-61
2021/07/11 11:35:18;;;;;;;19.93;18.13;;;21.90;99.90;;;;;;4968521;28;20498;-60
2021/07/11 11:37:53;;;;;;;19.20;17.50;;;21.80;99.90;;;;;;4972004;28;20467;-60
2021/07/11 11:40:26;;;;;;;18.80;17.00;;;21.40;99.90;;;;;;4971108;28;20469;-60
2021/07/11 11:42:57;;;;;;;18.43;16.80;;;21.40;99.90;;;;;;4966435;28;20461;-60
2021/07/11 11:45:29;;;;;;;19.37;17.63;;;21.50;99.90;;;;;;4968259;28;20462;-60
2021/07/11 11:48:04;;;;;;;19.20;17.50;;;21.50;99.90;;;;;;4972240;28;20469;-60
2021/07/11 11:50:32;;;;;;;19.40;17.40;;;21.60;99.90;;;;;;4970418;28;20500;-60
2021/07/11 11:53:08;;;;;;;20.60;18.47;;;21.50;99.90;;;;;;4964751;28;20508;-60
2021/07/11 11:55:39;;;;;;;22.17;20.27;;;21.20;99.90;;;;;;4972000;28;20930;-59
2021/07/11 12:37:35;;;;;;;27.80;24.90;;;20.50;99.90;;;;;;5447066;23;20923;31
2021/07/11 12:40:15;;;;;;;27.40;24.70;;;20.60;99.90;;;;;;4881182;29;20499;-59
2021/07/11 12:42:42;;;;;;;25.40;23.03;;;20.80;99.90;;;;;;4883475;29;20534;-58
2021/07/11 12:45:17;;;;;;;23.67;21.37;;;21.20;99.90;;;;;;4885844;29;20531;-57
2021/07/11 12:47:50;;;;;;;20.83;18.93;;;21.50;99.90;;;;;;4880378;29;20497;-58
2021/07/11 12:50:21;;;;;;;20.30;18.50;;;22.10;99.90;;;;;;4885678;29;20474;-59
2021/07/11 12:52:55;;;;;;;21.97;19.77;;;22.60;99.90;;;;;;4886483;29;20879;-59
2021/07/11 12:55:24;;;;;;;19.77;17.83;;;23.50;99.90;;;;;;4885799;29;20609;-58
2021/07/11 12:57:51;;;;;;;20.40;18.50;;;24.90;99.90;;;;;;4886152;29;20449;-56
2021/07/11 13:00:25;;;;;;;18.17;16.57;;;26.30;93.60;;;;;;4884459;29;20490;-55
2021/07/11 13:02:58;;;;;;;17.63;16.13;;;26.90;88.00;;;;;;4882620;29;20477;-57
2021/07/11 13:05:36;;;;;;;16.77;15.37;;;27.20;84.00;;;;;;4879424;29;20445;-55
2021/07/11 13:08:05;;;;;;;18.80;17.23;;;27.10;81.90;;;;;;4885473;29;20493;-57
2021/07/11 13:10:38;;;;;;;17.73;16.33;;;26.30;82.10;;;;;;4884978;29;20470;-57
2021/07/11 13:13:05;;;;;;;17.87;16.57;;;25.70;90.70;;;;;;4885514;29;20470;-58
2021/07/11 13:15:34;;;;;;;19.00;17.40;;;25.90;87.10;;;;;;4885361;29;20800;-55
2021/07/11 13:18:06;;;;;;;19.50;17.70;;;25.90;83.90;;;;;;4885555;29;20514;-56
2021/07/11 13:20:34;;;;;;;20.27;18.53;;;25.60;86.20;;;;;;4885256;29;20492;-55
2021/07/11 13:23:08;;;;;;;21.13;19.30;;;25.30;88.40;;;;;;4885048;29;20883;-53
2021/07/11 13:25:42;;;;;;;18.10;16.60;;;25.00;88.10;;;;;;4885135;29;20975;-55
2021/07/11 13:28:13;;;;;;;18.30;16.70;;;24.80;88.40;;;;;;4885376;29;20474;-56
2021/07/11 13:30:40;;;;;;;18.57;16.37;;;24.90;90.50;;;;;;4884816;29;20558;-53
2021/07/11 13:33:07;;;;;;;18.83;17.07;;;24.90;90.60;;;;;;4885200;29;20470;-55
2021/07/11 13:35:34;;;;;;;18.70;17.20;;;24.50;92.00;;;;;;4885038;29;20510;-56
2021/07/11 13:38:01;;;;;;;18.47;16.97;;;24.60;91.40;;;;;;4887433;29;20561;-53
2021/07/11 13:40:28;;;;;;;16.60;15.20;;;24.70;90.60;;;;;;4904011;29;20477;-57
2021/07/11 13:42:58;;;;;;;16.80;15.20;;;24.20;91.00;;;;;;4902608;29;20529;-56
2021/07/11 13:45:25;;;;;;;17.63;16.13;;;24.00;92.20;;;;;;4902277;29;20477;-57
2021/07/11 13:47:52;;;;;;;19.23;17.63;;;24.00;93.40;;;;;;4903222;29;20587;-57
2021/07/11 13:50:19;;;;;;;17.93;16.40;;;23.80;94.00;;;;;;4903161;29;20816;-56
2021/07/11 13:52:51;;;;;;;17.40;15.80;;;23.90;93.00;;;;;;4903020;29;20521;-55
2021/07/11 13:55:19;;;;;;;19.60;17.70;;;23.60;93.90;;;;;;4902498;29;20501;-55
2021/07/11 13:57:47;;;;;;;17.70;16.20;;;23.60;95.90;;;;;;4903062;29;20480;-54
2021/07/11 14:00:19;;;;;;;15.17;13.90;;;23.80;95.80;;;;;;4902658;29;20576;-57
2021/07/11 14:02:47;;;;;;;13.63;12.50;;;23.90;94.40;;;;;;4899913;29;20469;-57
2021/07/11 14:05:17;;;;;;;13.73;12.43;;;23.90;93.30;;;;;;4897418;29;20691;-56
2021/07/11 14:07:46;;;;;;;15.37;13.83;;;24.10;93.00;;;;;;4902288;29;20822;-56
2021/07/11 14:10:14;;;;;;;13.40;12.20;;;24.30;93.40;;;;;;4901956;29;20887;-55
2021/07/11 14:12:41;;;;;;;10.87;9.90;;;24.80;92.90;;;;;;4902788;29;20529;-56
2021/07/11 14:15:12;;;;;;;12.00;10.90;;;25.00;90.00;;;;;;4902612;29;20501;-55
2021/07/11 14:17:42;;;;;;;11.20;10.30;;;25.20;85.00;;;;;;4902916;29;20484;-55
2021/07/11 14:20:10;;;;;;;11.17;10.27;;;25.00;86.70;;;;;;4903264;29;20914;-56
2021/07/11 14:22:37;;;;;;;11.50;10.60;;;24.60;87.30;;;;;;4902433;29;20469;-56
2021/07/11 14:25:06;;;;;;;11.67;10.77;;;24.60;87.30;;;;;;4902962;29;20759;-57
2021/07/11 14:27:33;;;;;;;11.67;10.77;;;24.70;88.50;;;;;;4902248;29;20787;-52
2021/07/11 14:30:01;;;;;;;10.93;10.03;;;24.60;89.10;;;;;;4902617;29;20477;-56
2021/07/11 14:32:31;;;;;;;10.63;9.73;;;24.50;88.10;;;;;;4901985;29;20533;-56
2021/07/11 14:35:02;;;;;;;8.87;8.20;;;24.60;87.20;;;;;;4902536;29;20509;-55
2021/07/11 14:37:32;;;;;;;9.47;8.70;;;24.10;89.50;;;;;;4902495;29;20883;-54
2021/07/11 14:39:59;;;;;;;11.60;10.70;;;24.50;89.70;;;;;;4902247;29;20808;-56
2021/07/11 14:42:29;;;;;;;9.00;8.30;;;24.60;87.50;;;;;;4902960;29;20533;-57
2021/07/11 14:44:56;;;;;;;8.50;7.83;;;24.40;87.30;;;;;;4902669;29;20733;-56
2021/07/11 14:47:23;;;;;;;9.53;8.30;;;24.50;90.40;;;;;;4902313;29;20529;-52
2021/07/11 14:49:50;;;;;;;9.20;8.40;;;24.50;89.30;;;;;;4902643;29;20473;-57
2021/07/11 14:52:21;;;;;;;9.00;8.30;;;24.40;88.70;;;;;;4902424;29;20473;-56
2021/07/11 14:54:52;;;;;;;9.20;8.50;;;24.20;90.80;;;;;;4902233;29;20573;-55
2021/07/11 14:57:19;;;;;;;8.27;7.67;;;24.10;91.70;;;;;;4902402;29;20533;-56
2021/07/11 14:59:46;;;;;;;9.70;9.00;;;24.20;90.50;;;;;;4902101;29;20477;-56
2021/07/11 15:02:19;;;;;;;9.10;8.40;;;24.50;90.20;;;;;;4902565;29;20528;-54
2021/07/11 15:04:46;;;;;;;7.90;7.20;;;25.00;90.30;;;;;;4893073;29;20473;-57
2021/07/11 15:07:15;;;;;;;8.73;8.03;;;25.40;85.60;;;;;;4900453;29;20525;-55
2021/07/11 15:09:44;;;;;;;8.17;7.60;;;25.60;83.50;;;;;;4901873;29;20465;-57
2021/07/11 15:12:13;;;;;;;7.63;7.13;;;25.80;81.40;;;;;;4902365;29;20477;-56
2021/07/11 15:14:40;;;;;;;8.43;7.80;;;25.60;80.30;;;;;;4901271;29;20469;-56
2021/07/11 15:17:10;;;;;;;7.90;7.30;;;25.50;79.50;;;;;;4902030;29;20763;-56
2021/07/11 15:19:37;;;;;;;7.50;6.90;;;24.90;79.10;;;;;;4899467;29;20773;-55
2021/07/11 15:22:07;;;;;;;6.70;6.20;;;24.50;86.30;;;;;;4901389;29;20818;-56
2021/07/11 15:24:36;;;;;;;7.20;6.70;;;24.40;87.30;;;;;;4901768;29;20469;-57
2021/07/11 15:27:06;;;;;;;8.47;7.43;;;24.50;85.30;;;;;;4901987;29;20473;-56
2021/07/11 15:29:34;;;;;;;7.63;7.03;;;24.40;85.60;;;;;;4901123;29;20929;-56
2021/07/11 15:32:01;;;;;;;6.80;6.30;;;24.50;86.50;;;;;;4902047;29;20822;-57
2021/07/11 15:34:28;;;;;;;7.67;7.07;;;24.30;87.00;;;;;;4901563;29;20534;-56
2021/07/11 15:36:58;;;;;;;7.57;7.00;;;24.10;87.50;;;;;;4901756;29;21088;-55
2021/07/11 15:39:26;;;;;;;8.57;7.70;;;24.00;87.50;;;;;;4901279;29;21004;-52
2021/07/11 15:41:54;;;;;;;8.10;7.50;;;24.10;89.30;;;;;;4901492;29;25112;-52
2021/07/11 15:44:22;;;;;;;7.50;6.90;;;23.90;88.90;;;;;;4901307;29;20481;-55
2021/07/11 15:46:55;;;;;;;6.83;6.33;;;24.20;90.50;;;;;;4901975;29;21029;-55
2021/07/11 15:49:24;;;;;;;6.03;5.63;;;24.60;88.20;;;;;;4901549;29;20983;-56
2021/07/11 15:51:51;;;;;;;7.60;6.57;;;25.00;86.90;;;;;;4901688;29;20524;-56
2021/07/11 15:54:18;;;;;;;6.87;6.37;;;25.30;85.50;;;;;;4901625;29;20526;-55
2021/07/11 15:56:45;;;;;;;9.37;7.80;;;25.80;83.10;;;;;;4901702;29;20509;-53
2021/07/11 15:59:12;;;;;;;6.27;5.77;;;25.90;81.80;;;;;;4900270;29;20485;-53
2021/07/11 16:01:44;;;;;;;6.20;5.70;;;25.70;83.10;;;;;;4901440;29;20525;-52
2021/07/11 16:04:11;;;;;;;6.93;6.27;;;26.00;82.60;;;;;;4891268;29;20998;-57
2021/07/11 16:06:40;;;;;;;6.20;5.70;;;25.80;81.00;;;;;;4900704;29;20776;-55
2021/07/11 16:09:08;;;;;;;6.63;6.17;;;25.30;83.80;;;;;;4901010;29;20532;-55
2021/07/11 16:11:35;;;;;;;5.63;5.23;;;25.50;83.40;;;;;;4901647;29;20894;-55
2021/07/11 16:14:02;;;;;;;6.20;5.60;;;25.20;84.20;;;;;;4901312;29;20469;-53
2021/07/11 16:16:29;;;;;;;6.67;5.90;;;25.60;82.60;;;;;;4901407;29;20508;-54
2021/07/11 16:18:57;;;;;;;6.30;5.70;;;25.60;80.10;;;;;;4905464;29;20902;-54
2021/07/11 16:21:24;;;;;;;5.90;5.50;;;25.80;80.90;;;;;;4904836;29;20516;-55
2021/07/11 16:23:51;;;;;;;5.50;5.00;;;26.00;80.80;;;;;;4905338;29;20525;-55
2021/07/11 16:26:18;;;;;;;6.23;4.70;;;26.10;78.00;;;;;;4904856;29;20524;-56
2021/07/11 16:28:46;;;;;;;5.53;4.57;;;25.60;77.60;;;;;;4906971;29;20465;-56
2021/07/11 16:31:14;;;;;;;14.83;13.50;;;25.90;79.60;;;;;;4906418;29;20469;-53
2021/07/11 16:33:41;;;;;;;7.77;7.17;;;26.00;76.00;;;;;;4905406;29;20469;-53
2021/07/11 16:36:09;;;;;;;5.27;4.97;;;26.30;77.70;;;;;;4904681;29;20505;-55
2021/07/11 16:38:38;;;;;;;5.27;4.77;;;26.50;74.70;;;;;;4904488;29;20545;-51
2021/07/11 16:41:08;;;;;;;5.03;4.63;;;26.50;75.00;;;;;;4904423;29;20483;-57
2021/07/11 16:43:35;;;;;;;4.63;4.27;;;26.30;75.20;;;;;;4905043;29;20473;-57
2021/07/11 16:46:04;;;;;;;4.70;4.30;;;26.30;75.80;;;;;;4904307;29;20469;-53
2021/07/11 16:48:34;;;;;;;5.57;5.17;;;26.00;74.10;;;;;;4905037;29;20509;-52
2021/07/11 16:51:03;;;;;;;4.23;3.93;;;25.50;74.10;;;;;;4904231;29;20533;-54
2021/07/11 16:53:32;;;;;;;4.87;4.47;;;25.70;75.50;;;;;;4904634;29;20528;-52
2021/07/11 16:56:00;;;;;;;5.50;5.00;;;25.30;76.70;;;;;;4904210;29;20574;-54
2021/07/11 16:58:27;;;;;;;5.23;4.73;;;25.20;75.20;;;;;;4904411;29;20864;-55
2021/07/11 17:00:54;;;;;;;4.70;4.40;;;24.10;76.50;;;;;;4903844;29;20974;-51
2021/07/11 17:03:21;;;;;;;5.10;4.80;;;23.80;79.30;;;;;;4897020;29;20918;-55
2021/07/11 17:05:49;;;;;;;4.73;4.43;;;23.80;81.00;;;;;;4901289;29;20477;-55
2021/07/11 17:08:21;;;;;;;5.23;4.70;;;23.50;83.20;;;;;;4904063;29;20448;-53
2021/07/11 17:10:50;;;;;;;4.67;4.23;;;23.40;84.00;;;;;;4904592;29;20473;-56
2021/07/11 17:13:19;;;;;;;5.17;4.77;;;23.20;85.50;;;;;;4904203;29;20476;-51
2021/07/11 17:15:46;;;;;;;5.20;4.90;;;23.20;81.90;;;;;;4903779;29;20596;-51
2021/07/11 17:18:13;;;;;;;5.30;4.80;;;22.90;83.70;;;;;;4903458;29;20473;-53
2021/07/11 17:20:40;;;;;;;4.10;3.80;;;22.70;86.70;;;;;;4903122;29;20481;-55
2021/07/11 17:23:07;;;;;;;4.00;3.70;;;22.70;86.60;;;;;;4902932;29;20551;-53
2021/07/11 17:25:34;;;;;;;4.27;3.97;;;22.80;84.90;;;;;;4903347;29;20474;-54
2021/07/11 17:28:03;;;;;;;4.37;3.90;;;22.90;85.20;;;;;;4904217;29;20473;-55
2021/07/11 17:30:30;;;;;;;4.70;4.33;;;22.90;84.10;;;;;;4902808;29;20482;-52
2021/07/11 17:32:57;;;;;;;4.73;4.43;;;22.70;86.60;;;;;;4903837;29;20477;-48
2021/07/11 17:35:27;;;;;;;4.40;4.10;;;22.80;85.70;;;;;;4896629;29;20465;-56
2021/07/11 17:37:54;;;;;;;4.30;3.90;;;22.80;86.10;;;;;;4902859;29;20529;-52
2021/07/11 17:40:24;;;;;;;4.60;4.30;;;22.50;85.70;;;;;;4910020;29;20751;-51